createdAt,value
2022-07-25T00:01:11.971Z,65.36
2022-07-25T00:03:39.194Z,65.25
2022-07-25T00:06:06.840Z,65.08
2022-07-25T00:08:40.018Z,65.35
2022-07-25T00:11:06.580Z,65.41
2022-07-25T00:13:33.134Z,65.69
2022-07-25T00:15:59.734Z,65.26
2022-07-25T00:18:26.349Z,65.69
2022-07-25T00:20:52.896Z,65.21
2022-07-25T00:23:19.453Z,65.35
2022-07-25T00:25:45.971Z,65.41
2022-07-25T00:28:12.783Z,65.04
2022-07-25T00:30:39.356Z,65.49
2022-07-25T00:33:06.155Z,65.35
2022-07-25T00:35:32.706Z,65.24
2022-07-25T00:37:59.270Z,65.62
2022-07-25T00:40:25.829Z,65.37
2022-07-25T00:42:52.446Z,65.35
2022-07-25T00:45:19.016Z,65.24
2022-07-25T00:47:45.576Z,65.69
2022-07-25T00:50:12.124Z,65.50
2022-07-25T00:52:38.696Z,65.12
2022-07-25T00:55:06.029Z,65.10
2022-07-25T00:57:32.638Z,65.25
2022-07-25T00:59:59.171Z,65.33
2022-07-25T01:02:25.793Z,65.49
2022-07-25T01:04:52.350Z,65.09
2022-07-25T01:07:18.916Z,65.58
2022-07-25T01:09:45.432Z,65.12
2022-07-25T01:12:12.013Z,64.96
2022-07-25T01:14:38.884Z,65.55
2022-07-25T01:17:05.660Z,65.13
2022-07-25T01:19:32.217Z,65.31
2022-07-25T01:21:58.747Z,65.25
2022-07-25T01:24:25.345Z,65.52
2022-07-25T01:26:51.947Z,65.54
2022-07-25T01:29:18.481Z,65.60
2022-07-25T01:31:45.010Z,65.08
2022-07-25T01:34:11.574Z,65.45
2022-07-25T01:36:38.109Z,65.03
2022-07-25T01:39:04.657Z,65.13
2022-07-25T01:41:31.236Z,65.11
2022-07-25T01:43:57.872Z,65.67
2022-07-25T01:46:24.445Z,65.33
2022-07-25T01:48:51.036Z,65.32
2022-07-25T01:51:20.428Z,65.58
2022-07-25T01:53:47.310Z,65.42
2022-07-25T01:56:14.939Z,65.19
2022-07-25T01:58:41.463Z,65.33
2022-07-25T02:01:08.106Z,65.31
2022-07-25T02:03:34.796Z,65.10
2022-07-25T02:06:05.984Z,65.69
2022-07-25T02:08:32.566Z,65.49
2022-07-25T02:10:59.453Z,65.37
2022-07-25T02:13:26.373Z,65.21
2022-07-25T02:15:53.009Z,65.04
2022-07-25T02:18:19.565Z,65.59
2022-07-25T02:20:46.143Z,65.59
2022-07-25T02:23:12.789Z,65.66
2022-07-25T02:25:39.380Z,65.91
2022-07-25T02:28:05.954Z,65.34
2022-07-25T02:30:32.584Z,65.61
2022-07-25T02:33:00.182Z,65.05
2022-07-25T02:35:27.037Z,65.02
2022-07-25T02:37:53.785Z,64.94
2022-07-25T02:40:20.641Z,65.17
2022-07-25T02:42:47.194Z,65.12
2022-07-25T02:45:14.085Z,65.13
2022-07-25T02:47:40.645Z,65.64
2022-07-25T02:50:07.536Z,65.19
2022-07-25T02:52:34.925Z,65.51
2022-07-25T02:55:04.873Z,65.44
2022-07-25T02:57:35.566Z,65.07
2022-07-25T03:00:02.144Z,65.35
2022-07-25T03:02:28.787Z,65.33
2022-07-25T03:04:55.374Z,65.21
2022-07-25T03:07:21.985Z,65.25
2022-07-25T03:09:48.568Z,65.60
2022-07-25T03:12:15.148Z,65.47
2022-07-25T03:14:41.689Z,65.50
2022-07-25T03:17:08.321Z,65.68
2022-07-25T03:19:37.251Z,65.30
2022-07-25T03:22:03.825Z,65.38
2022-07-25T03:24:30.534Z,65.36
2022-07-25T03:26:57.089Z,65.27
2022-07-25T03:29:23.636Z,65.70
2022-07-25T03:31:50.257Z,65.65
2022-07-25T03:34:16.849Z,65.23
2022-07-25T03:36:43.368Z,65.55
2022-07-25T03:39:09.945Z,65.12
2022-07-25T03:41:36.483Z,65.53
2022-07-25T03:44:03.440Z,65.25
2022-07-25T03:46:30.472Z,65.60
2022-07-25T03:48:57.215Z,65.07
2022-07-25T03:51:23.794Z,65.16
2022-07-25T03:54:02.208Z,65.19
2022-07-25T03:56:37.023Z,65.30
2022-07-25T03:59:10.270Z,64.82
2022-07-25T04:01:36.917Z,64.72
2022-07-25T04:04:04.166Z,65.09
2022-07-25T04:06:31.013Z,65.09
2022-07-25T04:08:58.281Z,64.73
2022-07-25T04:11:24.939Z,64.44
2022-07-25T04:13:51.673Z,64.64
2022-07-25T04:16:22.425Z,64.54
2022-07-25T04:18:50.514Z,64.87
2022-07-25T04:21:18.187Z,64.96
2022-07-25T04:23:44.770Z,65.21
2022-07-25T04:26:11.285Z,66.02
2022-07-25T04:28:37.867Z,65.56
2022-07-25T04:31:04.708Z,66.12
2022-07-25T04:33:31.425Z,66.05
2022-07-25T04:35:57.949Z,66.54
2022-07-25T04:38:24.521Z,66.99
2022-07-25T04:40:51.086Z,67.10
2022-07-25T04:43:17.676Z,67.19
2022-07-25T04:45:44.319Z,66.96
2022-07-25T04:48:10.860Z,67.05
2022-07-25T04:50:37.461Z,66.98
2022-07-25T04:53:04.493Z,67.24
2022-07-25T04:55:32.421Z,67.19
2022-07-25T04:58:01.852Z,67.17
2022-07-25T05:00:28.441Z,67.05
2022-07-25T05:02:54.961Z,67.28
2022-07-25T05:05:22.289Z,67.00
2022-07-25T05:07:49.946Z,66.85
2022-07-25T05:10:16.628Z,66.60
2022-07-25T05:12:43.176Z,66.38
2022-07-25T05:15:10.188Z,66.20
2022-07-25T05:17:36.804Z,66.67
2022-07-25T05:20:03.750Z,66.18
2022-07-25T05:22:30.345Z,66.07
2022-07-25T05:24:56.918Z,66.21
2022-07-25T05:27:23.461Z,66.00
2022-07-25T05:29:50.033Z,65.79
2022-07-25T05:32:16.617Z,65.79
2022-07-25T05:34:43.181Z,65.47
2022-07-25T05:37:09.710Z,66.07
2022-07-25T05:39:37.497Z,65.89
2022-07-25T05:42:04.086Z,66.18
2022-07-25T05:44:30.665Z,65.60
2022-07-25T05:46:57.245Z,66.03
2022-07-25T05:49:23.863Z,66.19
2022-07-25T05:51:50.463Z,66.12
2022-07-25T05:54:17.144Z,65.67
2022-07-25T05:56:43.708Z,65.99
2022-07-25T05:59:10.307Z,65.64
2022-07-25T06:01:37.954Z,65.81
2022-07-25T06:04:05.092Z,65.90
2022-07-25T06:06:32.773Z,65.45
2022-07-25T06:08:59.453Z,65.83
2022-07-25T06:11:30.869Z,65.55
2022-07-25T06:13:57.840Z,65.71
2022-07-25T06:16:24.565Z,65.86
2022-07-25T06:18:51.367Z,65.42
2022-07-25T06:21:17.941Z,65.34
2022-07-25T06:23:44.553Z,65.47
2022-07-25T06:26:11.378Z,65.40
2022-07-25T06:28:38.561Z,65.64
2022-07-25T06:31:05.254Z,65.79
2022-07-25T06:33:31.829Z,65.54
2022-07-25T06:35:58.388Z,65.71
2022-07-25T06:38:24.942Z,65.49
2022-07-25T06:40:51.488Z,65.66
2022-07-25T06:43:18.049Z,65.56
2022-07-25T06:45:47.520Z,65.51
2022-07-25T06:48:15.128Z,65.76
2022-07-25T06:50:42.023Z,65.55
2022-07-25T06:53:08.613Z,65.33
2022-07-25T06:55:35.228Z,65.31
2022-07-25T06:58:01.850Z,65.23
2022-07-25T07:00:28.582Z,65.70
2022-07-25T07:02:58.151Z,65.75
2022-07-25T07:05:25.562Z,65.44
2022-07-25T07:07:52.380Z,65.63
2022-07-25T07:10:19.008Z,65.68
2022-07-25T07:12:45.604Z,65.21
2022-07-25T07:15:12.364Z,65.55
2022-07-25T07:17:38.971Z,65.21
2022-07-25T07:20:06.402Z,65.56
2022-07-25T07:22:32.937Z,65.66
2022-07-25T07:24:59.833Z,65.64
2022-07-25T07:27:26.403Z,65.32
2022-07-25T07:29:52.968Z,65.34
2022-07-25T07:32:19.604Z,65.48
2022-07-25T07:34:46.286Z,65.29
2022-07-25T07:37:12.852Z,65.26
2022-07-25T07:39:40.440Z,65.38
2022-07-25T07:42:07.071Z,65.38
2022-07-25T07:44:33.618Z,65.21
2022-07-25T07:47:02.711Z,65.41
2022-07-25T07:49:29.746Z,65.27
2022-07-25T07:51:56.656Z,65.26
2022-07-25T07:54:41.599Z,65.18
2022-07-25T07:57:08.336Z,65.20
2022-07-25T07:59:34.966Z,65.13
2022-07-25T08:02:01.805Z,65.27
2022-07-25T08:04:28.537Z,64.98
2022-07-25T08:06:55.089Z,65.52
2022-07-25T08:09:21.707Z,65.47
2022-07-25T08:11:48.261Z,65.35
2022-07-25T08:14:15.132Z,65.30
2022-07-25T08:16:42.938Z,65.49
2022-07-25T08:19:09.520Z,65.17
2022-07-25T08:21:36.060Z,65.43
2022-07-25T08:24:02.774Z,65.10
2022-07-25T08:26:33.780Z,65.29
2022-07-25T08:29:18.305Z,65.65
2022-07-25T08:31:46.154Z,65.55
2022-07-25T08:34:12.863Z,65.68
2022-07-25T08:36:39.418Z,65.27
2022-07-25T08:39:05.969Z,65.22
2022-07-25T08:41:33.801Z,65.47
2022-07-25T08:44:00.965Z,65.54
2022-07-25T08:46:28.752Z,65.39
2022-07-25T08:48:55.777Z,65.61
2022-07-25T08:51:22.383Z,65.44
2022-07-25T08:53:48.954Z,65.55
2022-07-25T08:56:20.593Z,65.24
2022-07-25T08:58:47.659Z,65.18
2022-07-25T09:01:14.330Z,65.02
2022-07-25T09:03:42.515Z,65.14
2022-07-25T09:06:15.537Z,65.22
2022-07-25T09:09:05.314Z,65.20
2022-07-25T09:11:34.283Z,65.16
2022-07-25T09:14:07.256Z,65.53
2022-07-25T09:16:40.378Z,65.02
2022-07-25T09:19:07.387Z,65.45
2022-07-25T09:21:34.057Z,65.25
2022-07-25T09:24:16.830Z,65.63
2022-07-25T09:26:53.989Z,65.68
2022-07-25T09:29:24.702Z,65.25
2022-07-25T09:31:52.085Z,65.20
2022-07-25T09:34:34.589Z,65.54
2022-07-25T09:37:02.904Z,65.54
2022-07-25T09:39:47.138Z,65.14
2022-07-25T09:42:24.299Z,65.19
2022-07-25T09:45:03.409Z,65.20
2022-07-25T09:47:30.909Z,65.38
2022-07-25T09:49:57.514Z,65.64
2022-07-25T09:52:24.281Z,65.54
2022-07-25T09:54:50.904Z,65.14
2022-07-25T09:57:17.508Z,65.29
2022-07-25T09:59:44.841Z,65.72
2022-07-25T10:02:33.011Z,65.47
2022-07-25T10:05:16.030Z,65.49
2022-07-25T10:07:47.368Z,65.22
2022-07-25T10:10:30.267Z,65.24
2022-07-25T10:13:18.008Z,65.41
2022-07-25T10:15:44.504Z,65.07
2022-07-25T10:18:11.302Z,65.33
2022-07-25T10:20:37.895Z,65.21
2022-07-25T10:23:05.156Z,65.68
2022-07-25T10:25:31.737Z,65.65
2022-07-25T10:28:08.201Z,65.58
2022-07-25T10:30:36.412Z,65.12
2022-07-25T10:33:05.285Z,65.56
2022-07-25T10:35:31.940Z,65.43
2022-07-25T10:37:59.198Z,65.20
2022-07-25T10:40:30.173Z,65.29
2022-07-25T10:43:07.140Z,65.16
2022-07-25T10:45:38.464Z,65.49
2022-07-25T10:48:09.819Z,65.44
2022-07-25T10:50:55.417Z,65.55
2022-07-25T10:53:43.836Z,65.20
2022-07-25T10:56:12.941Z,65.66
2022-07-25T10:58:52.036Z,65.27
2022-07-25T11:01:25.908Z,65.31
2022-07-25T11:03:54.646Z,65.16
2022-07-25T11:06:34.790Z,65.44
2022-07-25T11:09:01.737Z,65.05
2022-07-25T11:11:36.377Z,65.48
2022-07-25T11:14:03.637Z,65.49
2022-07-25T11:16:30.394Z,65.55
2022-07-25T11:18:56.952Z,64.44
2022-07-25T11:21:23.489Z,64.93
2022-07-25T11:23:51.237Z,65.08
2022-07-25T11:26:17.926Z,65.23
2022-07-25T11:28:45.998Z,65.42
2022-07-25T11:31:14.640Z,65.32
2022-07-25T11:33:42.915Z,65.66
2022-07-25T11:36:10.700Z,65.11
2022-07-25T11:38:40.552Z,65.57
2022-07-25T11:41:07.353Z,65.25
2022-07-25T11:43:33.961Z,65.77
2022-07-25T11:46:04.194Z,65.55
2022-07-25T11:48:36.047Z,65.69
2022-07-25T11:51:18.369Z,65.71
2022-07-25T11:53:47.338Z,65.31
2022-07-25T11:59:08.415Z,65.66
2022-07-25T12:01:40.340Z,65.44
2022-07-25T12:04:11.492Z,65.56
2022-07-25T12:06:38.296Z,65.15
2022-07-25T12:09:18.963Z,65.66
2022-07-25T12:11:46.896Z,65.30
2022-07-25T12:14:13.610Z,65.37
2022-07-25T12:16:40.484Z,65.63
2022-07-25T12:19:18.145Z,65.66
2022-07-25T12:21:45.078Z,65.75
2022-07-25T12:24:11.620Z,65.38
2022-07-25T12:26:38.153Z,65.59
2022-07-25T12:29:05.238Z,65.57
2022-07-25T12:31:32.069Z,65.23
2022-07-25T12:33:59.303Z,65.36
2022-07-25T12:36:25.852Z,65.22
2022-07-25T12:38:52.412Z,65.26
2022-07-25T12:41:22.626Z,65.54
2022-07-25T12:43:49.767Z,65.42
2022-07-25T12:46:16.620Z,65.46
2022-07-25T12:48:43.577Z,65.44
2022-07-25T12:51:10.176Z,65.54
2022-07-25T12:53:41.768Z,65.53
2022-07-25T12:56:08.962Z,65.48
2022-07-25T12:58:36.405Z,65.42
2022-07-25T13:01:03.651Z,65.41
2022-07-25T13:03:30.392Z,65.60
2022-07-25T13:05:56.983Z,65.52
2022-07-25T13:08:23.548Z,65.20
2022-07-25T13:10:50.174Z,65.41
2022-07-25T13:13:16.717Z,65.28
2022-07-25T13:15:43.267Z,65.53
2022-07-25T13:18:09.876Z,65.49
2022-07-25T13:20:37.498Z,65.28
2022-07-25T13:23:04.060Z,65.27
2022-07-25T13:25:31.303Z,65.44
2022-07-25T13:27:57.853Z,65.28
2022-07-25T13:30:24.503Z,65.52
2022-07-25T13:32:51.716Z,65.41
2022-07-25T13:35:20.624Z,65.13
2022-07-25T13:37:47.617Z,65.49
2022-07-25T13:40:14.203Z,65.47
2022-07-25T13:42:40.745Z,65.48
2022-07-25T13:45:07.837Z,65.25
2022-07-25T13:47:35.717Z,65.12
2022-07-25T13:50:02.338Z,65.40
2022-07-25T13:52:28.909Z,65.35
2022-07-25T13:54:55.434Z,65.16
2022-07-25T13:57:22.039Z,65.57
2022-07-25T13:59:48.751Z,65.42
2022-07-25T14:02:15.357Z,65.42
2022-07-25T14:04:41.985Z,65.07
2022-07-25T14:07:08.550Z,65.14
2022-07-25T14:09:35.147Z,65.05
2022-07-25T14:12:01.700Z,65.18
2022-07-25T14:14:28.276Z,65.47
2022-07-25T14:16:55.614Z,65.62
2022-07-25T14:19:24.055Z,65.33
2022-07-25T14:21:50.571Z,65.64
2022-07-25T14:24:17.145Z,65.33
2022-07-25T14:26:43.676Z,65.67
2022-07-25T14:29:11.337Z,65.28
2022-07-25T14:31:39.299Z,65.40
2022-07-25T14:34:06.053Z,65.33
2022-07-25T14:36:32.792Z,65.55
2022-07-25T14:38:59.657Z,65.42
2022-07-25T14:41:26.204Z,65.56
2022-07-25T14:43:52.729Z,65.24
2022-07-25T14:46:19.424Z,65.18
2022-07-25T14:48:46.113Z,65.62
2022-07-25T14:51:12.752Z,65.64
2022-07-25T14:53:39.277Z,65.35
2022-07-25T14:56:06.202Z,65.76
2022-07-25T14:58:33.502Z,65.32
2022-07-25T15:01:00.155Z,65.75
2022-07-25T15:03:26.780Z,65.46
2022-07-25T15:05:53.749Z,65.46
2022-07-25T15:08:20.305Z,65.39
2022-07-25T15:10:47.073Z,65.31
2022-07-25T15:13:30.587Z,65.46
2022-07-25T15:15:58.372Z,65.71
2022-07-25T15:18:24.997Z,65.50
2022-07-25T15:20:52.003Z,65.26
2022-07-25T15:23:19.763Z,65.83
2022-07-25T15:26:04.071Z,65.66
2022-07-25T15:28:35.033Z,65.32
2022-07-25T15:31:01.702Z,65.32
2022-07-25T15:33:28.483Z,65.36
2022-07-25T15:35:55.199Z,65.25
2022-07-25T15:38:21.823Z,65.25
2022-07-25T15:40:48.473Z,65.32
2022-07-25T15:43:15.029Z,65.71
2022-07-25T15:45:42.789Z,65.21
2022-07-25T15:48:09.976Z,65.77
2022-07-25T15:50:38.111Z,65.77
2022-07-25T15:53:04.948Z,65.77
2022-07-25T15:55:32.016Z,65.73
2022-07-25T15:57:58.759Z,65.69
2022-07-25T16:00:29.415Z,65.33
2022-07-25T16:02:56.494Z,65.20
2022-07-25T16:05:23.150Z,65.42
2022-07-25T16:07:49.743Z,65.66
2022-07-25T16:10:16.572Z,65.65
2022-07-25T16:12:43.186Z,65.83
2022-07-25T16:15:10.193Z,65.16
2022-07-25T16:17:37.056Z,65.53
2022-07-25T16:20:07.268Z,65.82
2022-07-25T16:22:34.173Z,65.57
2022-07-25T16:25:01.303Z,65.38
2022-07-25T16:27:28.495Z,65.79
2022-07-25T16:29:55.051Z,65.95
2022-07-25T16:32:21.606Z,65.48
2022-07-25T16:34:48.200Z,65.06
2022-07-25T16:37:14.740Z,65.65
2022-07-25T16:39:41.306Z,65.71
2022-07-25T16:42:07.976Z,65.54
2022-07-25T16:44:34.521Z,65.60
2022-07-25T16:47:01.128Z,65.57
2022-07-25T16:49:27.693Z,65.64
2022-07-25T16:51:54.437Z,65.51
2022-07-25T16:54:22.549Z,65.80
2022-07-25T16:56:52.901Z,66.03
2022-07-25T16:59:20.725Z,65.80
2022-07-25T17:01:47.340Z,65.69
2022-07-25T17:04:13.953Z,65.78
2022-07-25T17:06:41.672Z,65.72
2022-07-25T17:09:08.853Z,65.71
2022-07-25T17:11:36.115Z,65.92
2022-07-25T17:14:04.354Z,65.69
2022-07-25T17:16:31.746Z,65.89
2022-07-25T17:18:58.329Z,65.65
2022-07-25T17:21:24.874Z,65.58
2022-07-25T17:23:53.224Z,65.68
2022-07-25T17:26:20.434Z,66.01
2022-07-25T17:28:46.994Z,65.70
2022-07-25T17:31:14.040Z,65.59
2022-07-25T17:33:40.662Z,65.44
2022-07-25T17:36:07.425Z,65.84
2022-07-25T17:38:35.235Z,65.92
2022-07-25T17:41:01.924Z,65.86
2022-07-25T17:43:29.015Z,65.54
2022-07-25T17:45:56.059Z,65.74
2022-07-25T17:48:22.611Z,65.72
2022-07-25T17:50:49.141Z,65.47
2022-07-25T17:53:17.996Z,65.66
2022-07-25T17:55:45.039Z,65.72
2022-07-25T17:58:11.728Z,66.13
2022-07-25T18:00:38.484Z,65.60
2022-07-25T18:03:05.122Z,65.46
2022-07-25T18:05:31.785Z,65.51
2022-07-25T18:07:58.416Z,65.51
2022-07-25T18:10:24.996Z,65.78
2022-07-25T18:12:51.631Z,65.43
2022-07-25T18:15:18.215Z,65.88
2022-07-25T18:17:45.368Z,65.56
2022-07-25T18:20:12.715Z,65.48
2022-07-25T18:22:41.053Z,65.25
2022-07-25T18:25:09.146Z,65.37
2022-07-25T18:27:35.737Z,65.81
2022-07-25T18:30:05.902Z,65.60
2022-07-25T18:32:32.523Z,65.52
2022-07-25T18:34:59.080Z,65.56
2022-07-25T18:37:25.753Z,65.36
2022-07-25T18:39:52.314Z,65.83
2022-07-25T18:42:18.875Z,65.45
2022-07-25T18:44:45.413Z,65.89
2022-07-25T18:47:12.001Z,65.49
2022-07-25T18:49:40.656Z,65.44
2022-07-25T18:52:07.354Z,65.85
2022-07-25T18:54:33.908Z,65.65
2022-07-25T18:57:00.469Z,65.86
2022-07-25T18:59:26.996Z,65.43
2022-07-25T19:01:55.107Z,65.91
2022-07-25T19:04:21.833Z,65.60
2022-07-25T19:06:48.424Z,65.89
2022-07-25T19:09:15.017Z,65.77
2022-07-25T19:11:42.317Z,65.83
2022-07-25T19:14:09.539Z,65.51
2022-07-25T19:16:36.554Z,65.77
2022-07-25T19:19:03.516Z,65.57
2022-07-25T19:21:30.107Z,65.46
2022-07-25T19:23:56.667Z,65.42
2022-07-25T19:26:23.316Z,65.75
2022-07-25T19:28:50.535Z,65.84
2022-07-25T19:31:17.130Z,65.84
2022-07-25T19:33:45.881Z,65.91
2022-07-25T19:36:13.315Z,66.07
2022-07-25T19:38:39.885Z,66.53
2022-07-25T19:41:08.151Z,65.99
2022-07-25T19:43:34.800Z,65.83
2022-07-25T19:46:01.446Z,65.85
2022-07-25T19:48:28.067Z,65.41
2022-07-25T19:50:54.679Z,65.60
2022-07-25T19:53:24.231Z,65.66
2022-07-25T19:55:53.557Z,65.97
2022-07-25T19:58:20.120Z,65.71
2022-07-25T20:00:46.688Z,66.19
2022-07-25T20:03:13.283Z,65.88
2022-07-25T20:05:41.241Z,65.58
2022-07-25T20:08:07.825Z,65.54
2022-07-25T20:10:34.402Z,65.54
2022-07-25T20:13:01.554Z,65.81
2022-07-25T20:15:28.541Z,66.04
2022-07-25T20:17:56.645Z,65.84
2022-07-25T20:20:23.215Z,65.50
2022-07-25T20:22:50.692Z,65.85
2022-07-25T20:25:17.377Z,65.95
2022-07-25T20:27:44.075Z,65.86
2022-07-25T20:30:11.249Z,65.53
2022-07-25T20:32:37.842Z,65.74
2022-07-25T20:35:05.297Z,65.54
2022-07-25T20:37:31.842Z,65.71
2022-07-25T20:39:58.401Z,65.72
2022-07-25T20:42:25.258Z,66.05
2022-07-25T20:44:51.934Z,65.85
2022-07-25T20:47:18.876Z,65.76
2022-07-25T20:49:45.457Z,65.68
2022-07-25T20:52:12.214Z,65.90
2022-07-25T20:54:39.915Z,65.88
2022-07-25T20:57:06.441Z,65.89
2022-07-25T20:59:32.972Z,65.93
2022-07-25T21:01:59.801Z,66.00
2022-07-25T21:04:26.378Z,65.97
2022-07-25T21:06:52.990Z,65.00
2022-07-25T21:09:23.117Z,65.67
2022-07-25T21:11:49.657Z,65.85
2022-07-25T21:14:16.217Z,65.77
2022-07-25T21:16:42.858Z,66.00
2022-07-25T21:19:09.786Z,65.50
2022-07-25T21:21:36.629Z,65.99
2022-07-25T21:24:03.364Z,65.60
2022-07-25T21:26:29.938Z,65.44
2022-07-25T21:28:56.561Z,65.54
2022-07-25T21:31:23.446Z,65.68
2022-07-25T21:33:50.145Z,66.04
2022-07-25T21:36:16.710Z,65.67
2022-07-25T21:38:43.278Z,65.88
2022-07-25T21:41:09.869Z,65.86
2022-07-25T21:43:36.645Z,65.91
2022-07-25T21:46:03.268Z,65.86
2022-07-25T21:48:48.169Z,65.61
2022-07-25T21:51:22.968Z,65.83
2022-07-25T21:53:51.322Z,65.94
2022-07-25T21:56:17.912Z,66.14
2022-07-25T21:58:44.691Z,65.82
2022-07-25T22:01:11.378Z,66.10
2022-07-25T22:03:38.026Z,66.11
2022-07-25T22:06:04.637Z,66.11
2022-07-25T22:08:31.225Z,65.71
2022-07-25T22:10:58.514Z,66.14
2022-07-25T22:13:25.165Z,66.17
2022-07-25T22:15:51.733Z,66.14
2022-07-25T22:18:18.291Z,65.83
2022-07-25T22:20:45.116Z,65.57
2022-07-25T22:23:11.706Z,65.93
2022-07-25T22:25:38.242Z,65.81
2022-07-25T22:28:05.066Z,65.52
2022-07-25T22:30:31.605Z,65.89
2022-07-25T22:32:58.171Z,65.86
2022-07-25T22:35:24.696Z,65.83
2022-07-25T22:37:51.257Z,65.36
2022-07-25T22:40:17.831Z,65.68
2022-07-25T22:42:44.465Z,65.75
2022-07-25T22:45:11.059Z,65.54
2022-07-25T22:47:37.645Z,65.54
2022-07-25T22:50:05.324Z,65.54
2022-07-25T22:52:31.864Z,65.71
2022-07-25T22:54:58.428Z,65.73
2022-07-25T22:57:24.950Z,65.88
2022-07-25T22:59:51.557Z,65.96
2022-07-25T23:02:18.088Z,66.00
2022-07-25T23:04:44.663Z,66.05
2022-07-25T23:07:11.257Z,65.98
2022-07-25T23:09:37.826Z,65.82
2022-07-25T23:12:04.958Z,66.16
2022-07-25T23:14:31.546Z,66.33
2022-07-25T23:17:16.601Z,66.36
2022-07-25T23:19:50.500Z,66.17
2022-07-25T23:22:17.795Z,66.08
2022-07-25T23:24:44.397Z,66.08
2022-07-25T23:27:11.236Z,66.21
2022-07-25T23:29:37.842Z,66.55
2022-07-25T23:32:05.003Z,66.24
2022-07-25T23:34:31.672Z,66.40
2022-07-25T23:36:58.271Z,66.37
2022-07-25T23:39:24.820Z,66.07
2022-07-25T23:41:51.658Z,66.53
2022-07-25T23:44:18.262Z,65.91
2022-07-25T23:46:45.732Z,66.07
2022-07-25T23:49:13.650Z,66.36
2022-07-25T23:51:40.406Z,66.58
2022-07-25T23:54:06.968Z,66.23
2022-07-25T23:56:33.545Z,66.07
2022-07-25T23:59:00.198Z,66.30
